sensor_id;sensor_type;location;lat;lon;timestamp;P1;durP1;ratioP1;P2;durP2;ratioP2
48613;SDS011;34408;51.426;5.444;2023-05-21T00:00:38;4.22;;;2.22;;
48613;SDS011;34408;51.426;5.444;2023-05-21T00:03:06;4.38;;;2.40;;
48613;SDS011;34408;51.426;5.444;2023-05-21T00:05:40;8.10;;;2.33;;
48613;SDS011;34408;51.426;5.444;2023-05-21T00:08:09;3.58;;;2.70;;
48613;SDS011;34408;51.426;5.444;2023-05-21T00:10:37;4.60;;;2.60;;
48613;SDS011;34408;51.426;5.444;2023-05-21T00:13:05;4.43;;;2.20;;
48613;SDS011;34408;51.426;5.444;2023-05-21T00:15:34;4.90;;;3.05;;
48613;SDS011;34408;51.426;5.444;2023-05-21T00:18:02;6.13;;;2.90;;
48613;SDS011;34408;51.426;5.444;2023-05-21T00:20:30;4.20;;;2.60;;
48613;SDS011;34408;51.426;5.444;2023-05-21T00:23:00;5.00;;;2.63;;
48613;SDS011;34408;51.426;5.444;2023-05-21T00:25:29;3.22;;;2.35;;
48613;SDS011;34408;51.426;5.444;2023-05-21T00:27:56;4.65;;;2.53;;
48613;SDS011;34408;51.426;5.444;2023-05-21T00:30:24;4.07;;;2.70;;
48613;SDS011;34408;51.426;5.444;2023-05-21T00:32:52;5.93;;;2.72;;
48613;SDS011;34408;51.426;5.444;2023-05-21T00:35:20;4.63;;;2.45;;
48613;SDS011;34408;51.426;5.444;2023-05-21T00:37:48;3.90;;;2.20;;
48613;SDS011;34408;51.426;5.444;2023-05-21T00:40:18;4.03;;;2.53;;
48613;SDS011;34408;51.426;5.444;2023-05-21T00:42:46;4.97;;;2.60;;
48613;SDS011;34408;51.426;5.444;2023-05-21T00:45:15;4.60;;;2.70;;
48613;SDS011;34408;51.426;5.444;2023-05-21T00:47:42;4.05;;;2.10;;
48613;SDS011;34408;51.426;5.444;2023-05-21T00:50:13;5.20;;;3.13;;
48613;SDS011;34408;51.426;5.444;2023-05-21T00:52:42;3.47;;;2.50;;
48613;SDS011;34408;51.426;5.444;2023-05-21T00:55:11;3.78;;;2.05;;
48613;SDS011;34408;51.426;5.444;2023-05-21T00:57:40;3.55;;;2.15;;
48613;SDS011;34408;51.426;5.444;2023-05-21T01:00:08;7.03;;;2.35;;
48613;SDS011;34408;51.426;5.444;2023-05-21T01:02:37;3.58;;;2.22;;
48613;SDS011;34408;51.426;5.444;2023-05-21T01:05:05;4.10;;;2.22;;
48613;SDS011;34408;51.426;5.444;2023-05-21T01:07:33;2.90;;;2.42;;
48613;SDS011;34408;51.426;5.444;2023-05-21T01:10:05;6.32;;;2.78;;
48613;SDS011;34408;51.426;5.444;2023-05-21T01:12:34;4.93;;;3.00;;
48613;SDS011;34408;51.426;5.444;2023-05-21T01:15:07;6.78;;;2.70;;
48613;SDS011;34408;51.426;5.444;2023-05-21T01:17:36;5.25;;;2.50;;
48613;SDS011;34408;51.426;5.444;2023-05-21T01:20:05;3.83;;;2.60;;
48613;SDS011;34408;51.426;5.444;2023-05-21T01:22:37;5.70;;;2.88;;
48613;SDS011;34408;51.426;5.444;2023-05-21T01:25:11;4.00;;;2.20;;
48613;SDS011;34408;51.426;5.444;2023-05-21T01:27:40;6.03;;;2.28;;
48613;SDS011;34408;51.426;5.444;2023-05-21T01:30:08;6.35;;;3.03;;
48613;SDS011;34408;51.426;5.444;2023-05-21T01:32:37;3.80;;;2.80;;
48613;SDS011;34408;51.426;5.444;2023-05-21T01:35:12;6.50;;;2.28;;
48613;SDS011;34408;51.426;5.444;2023-05-21T01:37:44;3.45;;;2.55;;
48613;SDS011;34408;51.426;5.444;2023-05-21T01:40:20;7.32;;;3.33;;
48613;SDS011;34408;51.426;5.444;2023-05-21T01:42:52;5.20;;;3.00;;
48613;SDS011;34408;51.426;5.444;2023-05-21T01:45:20;5.20;;;2.95;;
48613;SDS011;34408;51.426;5.444;2023-05-21T01:47:50;4.60;;;2.75;;
48613;SDS011;34408;51.426;5.444;2023-05-21T01:50:21;6.80;;;3.50;;
48613;SDS011;34408;51.426;5.444;2023-05-21T01:52:51;4.85;;;3.15;;
48613;SDS011;34408;51.426;5.444;2023-05-21T01:55:23;7.57;;;3.65;;
48613;SDS011;34408;51.426;5.444;2023-05-21T01:57:51;5.82;;;3.30;;
48613;SDS011;34408;51.426;5.444;2023-05-21T02:00:19;8.32;;;3.45;;
48613;SDS011;34408;51.426;5.444;2023-05-21T02:02:47;5.20;;;3.22;;
48613;SDS011;34408;51.426;5.444;2023-05-21T02:05:15;5.63;;;3.58;;
48613;SDS011;34408;51.426;5.444;2023-05-21T02:07:44;5.95;;;3.78;;
48613;SDS011;34408;51.426;5.444;2023-05-21T02:10:12;5.07;;;3.40;;
48613;SDS011;34408;51.426;5.444;2023-05-21T02:12:42;9.75;;;3.58;;
48613;SDS011;34408;51.426;5.444;2023-05-21T02:15:10;7.85;;;3.38;;
48613;SDS011;34408;51.426;5.444;2023-05-21T02:17:39;4.30;;;3.13;;
48613;SDS011;34408;51.426;5.444;2023-05-21T02:20:08;5.63;;;3.53;;
48613;SDS011;34408;51.426;5.444;2023-05-21T02:22:37;6.50;;;3.20;;
48613;SDS011;34408;51.426;5.444;2023-05-21T02:25:05;5.85;;;3.53;;
48613;SDS011;34408;51.426;5.444;2023-05-21T02:27:35;4.60;;;2.80;;
48613;SDS011;34408;51.426;5.444;2023-05-21T02:30:06;4.25;;;3.13;;
48613;SDS011;34408;51.426;5.444;2023-05-21T02:32:35;4.72;;;2.83;;
48613;SDS011;34408;51.426;5.444;2023-05-21T02:35:05;7.10;;;2.85;;
48613;SDS011;34408;51.426;5.444;2023-05-21T02:37:33;7.22;;;2.75;;
48613;SDS011;34408;51.426;5.444;2023-05-21T02:40:02;8.57;;;3.17;;
48613;SDS011;34408;51.426;5.444;2023-05-21T02:42:31;4.63;;;2.60;;
48613;SDS011;34408;51.426;5.444;2023-05-21T02:44:58;5.95;;;3.38;;
48613;SDS011;34408;51.426;5.444;2023-05-21T02:47:28;6.70;;;2.80;;
48613;SDS011;34408;51.426;5.444;2023-05-21T02:49:57;5.22;;;2.90;;
48613;SDS011;34408;51.426;5.444;2023-05-21T02:52:26;4.65;;;2.80;;
48613;SDS011;34408;51.426;5.444;2023-05-21T02:54:54;5.72;;;3.03;;
48613;SDS011;34408;51.426;5.444;2023-05-21T02:57:21;5.68;;;2.83;;
48613;SDS011;34408;51.426;5.444;2023-05-21T02:59:49;3.22;;;2.53;;
48613;SDS011;34408;51.426;5.444;2023-05-21T03:02:17;4.88;;;3.05;;
48613;SDS011;34408;51.426;5.444;2023-05-21T03:04:46;7.32;;;2.90;;
48613;SDS011;34408;51.426;5.444;2023-05-21T03:07:16;5.15;;;2.60;;
48613;SDS011;34408;51.426;5.444;2023-05-21T03:09:45;3.80;;;2.70;;
48613;SDS011;34408;51.426;5.444;2023-05-21T03:12:13;5.57;;;3.15;;
48613;SDS011;34408;51.426;5.444;2023-05-21T03:14:41;5.82;;;2.70;;
48613;SDS011;34408;51.426;5.444;2023-05-21T03:17:09;6.80;;;3.42;;
48613;SDS011;34408;51.426;5.444;2023-05-21T03:19:39;4.35;;;3.05;;
48613;SDS011;34408;51.426;5.444;2023-05-21T03:22:09;4.22;;;2.95;;
48613;SDS011;34408;51.426;5.444;2023-05-21T03:24:37;6.35;;;3.10;;
48613;SDS011;34408;51.426;5.444;2023-05-21T03:27:06;4.82;;;2.85;;
48613;SDS011;34408;51.426;5.444;2023-05-21T03:29:34;5.90;;;3.38;;
48613;SDS011;34408;51.426;5.444;2023-05-21T03:32:03;3.58;;;2.60;;
48613;SDS011;34408;51.426;5.444;2023-05-21T03:34:31;4.28;;;2.45;;
48613;SDS011;34408;51.426;5.444;2023-05-21T03:37:00;3.92;;;2.70;;
48613;SDS011;34408;51.426;5.444;2023-05-21T03:39:30;5.22;;;3.05;;
48613;SDS011;34408;51.426;5.444;2023-05-21T03:41:57;6.40;;;2.38;;
48613;SDS011;34408;51.426;5.444;2023-05-21T03:44:25;4.57;;;2.80;;
48613;SDS011;34408;51.426;5.444;2023-05-21T03:46:53;4.50;;;2.72;;
48613;SDS011;34408;51.426;5.444;2023-05-21T03:49:21;4.38;;;2.72;;
48613;SDS011;34408;51.426;5.444;2023-05-21T03:51:48;5.60;;;2.88;;
48613;SDS011;34408;51.426;5.444;2023-05-21T03:54:16;5.30;;;3.00;;
48613;SDS011;34408;51.426;5.444;2023-05-21T03:56:46;5.38;;;2.95;;
48613;SDS011;34408;51.426;5.444;2023-05-21T03:59:14;5.13;;;3.05;;
48613;SDS011;34408;51.426;5.444;2023-05-21T04:01:42;5.88;;;3.28;;
48613;SDS011;34408;51.426;5.444;2023-05-21T04:04:10;5.18;;;2.95;;
48613;SDS011;34408;51.426;5.444;2023-05-21T04:06:38;4.10;;;2.90;;
48613;SDS011;34408;51.426;5.444;2023-05-21T04:09:07;4.78;;;2.70;;
48613;SDS011;34408;51.426;5.444;2023-05-21T04:11:35;4.55;;;3.00;;
48613;SDS011;34408;51.426;5.444;2023-05-21T04:14:04;5.18;;;2.85;;
48613;SDS011;34408;51.426;5.444;2023-05-21T04:16:32;6.78;;;3.10;;
48613;SDS011;34408;51.426;5.444;2023-05-21T04:19:00;5.15;;;2.80;;
48613;SDS011;34408;51.426;5.444;2023-05-21T04:21:28;4.50;;;2.88;;
48613;SDS011;34408;51.426;5.444;2023-05-21T04:23:57;4.82;;;2.55;;
48613;SDS011;34408;51.426;5.444;2023-05-21T04:26:26;4.35;;;2.85;;
48613;SDS011;34408;51.426;5.444;2023-05-21T04:28:54;4.25;;;2.75;;
48613;SDS011;34408;51.426;5.444;2023-05-21T04:31:24;4.45;;;2.83;;
48613;SDS011;34408;51.426;5.444;2023-05-21T04:33:52;4.32;;;2.92;;
48613;SDS011;34408;51.426;5.444;2023-05-21T04:36:19;3.50;;;2.33;;
48613;SDS011;34408;51.426;5.444;2023-05-21T04:38:47;3.72;;;2.25;;
48613;SDS011;34408;51.426;5.444;2023-05-21T04:41:15;4.60;;;2.97;;
48613;SDS011;34408;51.426;5.444;2023-05-21T04:43:44;6.25;;;2.95;;
48613;SDS011;34408;51.426;5.444;2023-05-21T04:46:12;5.18;;;3.13;;
48613;SDS011;34408;51.426;5.444;2023-05-21T04:48:41;3.83;;;3.00;;
48613;SDS011;34408;51.426;5.444;2023-05-21T04:51:10;5.47;;;3.03;;
48613;SDS011;34408;51.426;5.444;2023-05-21T04:53:38;6.40;;;2.70;;
48613;SDS011;34408;51.426;5.444;2023-05-21T04:56:06;4.70;;;2.97;;
48613;SDS011;34408;51.426;5.444;2023-05-21T04:58:35;7.82;;;3.25;;
48613;SDS011;34408;51.426;5.444;2023-05-21T05:01:05;5.30;;;3.40;;
48613;SDS011;34408;51.426;5.444;2023-05-21T05:03:34;4.68;;;3.40;;
48613;SDS011;34408;51.426;5.444;2023-05-21T05:06:03;4.82;;;3.30;;
48613;SDS011;34408;51.426;5.444;2023-05-21T05:08:33;3.88;;;2.92;;
48613;SDS011;34408;51.426;5.444;2023-05-21T05:11:00;6.43;;;3.38;;
48613;SDS011;34408;51.426;5.444;2023-05-21T05:13:28;6.68;;;3.30;;
48613;SDS011;34408;51.426;5.444;2023-05-21T05:15:56;4.90;;;3.30;;
48613;SDS011;34408;51.426;5.444;2023-05-21T05:18:25;6.65;;;3.30;;
48613;SDS011;34408;51.426;5.444;2023-05-21T05:20:53;4.72;;;3.22;;
48613;SDS011;34408;51.426;5.444;2023-05-21T05:23:22;5.25;;;3.72;;
48613;SDS011;34408;51.426;5.444;2023-05-21T05:25:50;5.28;;;3.13;;
48613;SDS011;34408;51.426;5.444;2023-05-21T05:28:18;4.80;;;3.40;;
48613;SDS011;34408;51.426;5.444;2023-05-21T05:30:46;6.03;;;3.40;;
48613;SDS011;34408;51.426;5.444;2023-05-21T05:33:14;4.45;;;3.28;;
48613;SDS011;34408;51.426;5.444;2023-05-21T05:35:42;5.13;;;2.92;;
48613;SDS011;34408;51.426;5.444;2023-05-21T05:38:09;4.22;;;3.00;;
48613;SDS011;34408;51.426;5.444;2023-05-21T05:40:40;6.03;;;3.15;;
48613;SDS011;34408;51.426;5.444;2023-05-21T05:43:07;6.18;;;3.47;;
48613;SDS011;34408;51.426;5.444;2023-05-21T05:45:35;4.72;;;2.97;;
48613;SDS011;34408;51.426;5.444;2023-05-21T05:48:04;6.45;;;3.30;;
48613;SDS011;34408;51.426;5.444;2023-05-21T05:50:32;4.57;;;3.53;;
48613;SDS011;34408;51.426;5.444;2023-05-21T05:53:00;5.38;;;3.63;;
48613;SDS011;34408;51.426;5.444;2023-05-21T05:55:28;6.13;;;3.67;;
48613;SDS011;34408;51.426;5.444;2023-05-21T05:57:57;7.20;;;3.33;;
48613;SDS011;34408;51.426;5.444;2023-05-21T06:00:25;4.40;;;3.10;;
48613;SDS011;34408;51.426;5.444;2023-05-21T06:02:53;5.35;;;3.55;;
48613;SDS011;34408;51.426;5.444;2023-05-21T06:05:21;5.30;;;3.25;;
48613;SDS011;34408;51.426;5.444;2023-05-21T06:07:49;7.30;;;3.40;;
48613;SDS011;34408;51.426;5.444;2023-05-21T06:10:17;5.60;;;3.33;;
48613;SDS011;34408;51.426;5.444;2023-05-21T06:12:45;7.22;;;2.97;;
48613;SDS011;34408;51.426;5.444;2023-05-21T06:15:15;6.63;;;3.38;;
48613;SDS011;34408;51.426;5.444;2023-05-21T06:17:44;5.35;;;4.00;;
48613;SDS011;34408;51.426;5.444;2023-05-21T06:20:12;8.40;;;4.53;;
48613;SDS011;34408;51.426;5.444;2023-05-21T06:22:40;5.85;;;3.83;;
48613;SDS011;34408;51.426;5.444;2023-05-21T06:25:08;9.00;;;3.88;;
48613;SDS011;34408;51.426;5.444;2023-05-21T06:27:36;5.25;;;3.28;;
48613;SDS011;34408;51.426;5.444;2023-05-21T06:30:05;4.63;;;3.25;;
48613;SDS011;34408;51.426;5.444;2023-05-21T06:32:35;5.78;;;3.35;;
48613;SDS011;34408;51.426;5.444;2023-05-21T06:35:03;7.80;;;3.80;;
48613;SDS011;34408;51.426;5.444;2023-05-21T06:37:32;5.55;;;3.65;;
48613;SDS011;34408;51.426;5.444;2023-05-21T06:39:59;6.72;;;3.47;;
48613;SDS011;34408;51.426;5.444;2023-05-21T06:42:27;5.32;;;3.22;;
48613;SDS011;34408;51.426;5.444;2023-05-21T06:44:55;5.38;;;3.25;;
48613;SDS011;34408;51.426;5.444;2023-05-21T06:47:23;5.85;;;3.53;;
48613;SDS011;34408;51.426;5.444;2023-05-21T06:49:52;6.60;;;4.00;;
48613;SDS011;34408;51.426;5.444;2023-05-21T06:52:20;6.00;;;3.70;;
48613;SDS011;34408;51.426;5.444;2023-05-21T06:54:47;7.65;;;3.63;;
48613;SDS011;34408;51.426;5.444;2023-05-21T06:57:15;5.68;;;3.58;;
48613;SDS011;34408;51.426;5.444;2023-05-21T06:59:43;6.88;;;3.72;;
48613;SDS011;34408;51.426;5.444;2023-05-21T07:02:11;5.10;;;3.28;;
48613;SDS011;34408;51.426;5.444;2023-05-21T07:04:39;9.52;;;3.70;;
48613;SDS011;34408;51.426;5.444;2023-05-21T07:07:08;4.90;;;3.30;;
48613;SDS011;34408;51.426;5.444;2023-05-21T07:09:36;6.63;;;4.20;;
48613;SDS011;34408;51.426;5.444;2023-05-21T07:12:04;4.97;;;3.47;;
48613;SDS011;34408;51.426;5.444;2023-05-21T07:14:32;7.18;;;3.50;;
48613;SDS011;34408;51.426;5.444;2023-05-21T07:16:59;6.07;;;3.53;;
48613;SDS011;34408;51.426;5.444;2023-05-21T07:19:27;6.47;;;3.35;;
48613;SDS011;34408;51.426;5.444;2023-05-21T07:21:56;5.50;;;3.33;;
48613;SDS011;34408;51.426;5.444;2023-05-21T07:24:25;5.15;;;3.63;;
48613;SDS011;34408;51.426;5.444;2023-05-21T07:26:53;8.13;;;3.58;;
48613;SDS011;34408;51.426;5.444;2023-05-21T07:29:21;5.05;;;3.40;;
48613;SDS011;34408;51.426;5.444;2023-05-21T07:31:48;4.70;;;3.78;;
48613;SDS011;34408;51.426;5.444;2023-05-21T07:34:16;7.43;;;4.20;;
48613;SDS011;34408;51.426;5.444;2023-05-21T07:36:44;8.10;;;3.60;;
48613;SDS011;34408;51.426;5.444;2023-05-21T07:39:12;7.97;;;4.03;;
48613;SDS011;34408;51.426;5.444;2023-05-21T07:41:41;5.53;;;3.65;;
48613;SDS011;34408;51.426;5.444;2023-05-21T07:44:09;5.80;;;3.80;;
48613;SDS011;34408;51.426;5.444;2023-05-21T07:46:37;5.28;;;3.15;;
48613;SDS011;34408;51.426;5.444;2023-05-21T07:49:04;7.20;;;3.90;;
48613;SDS011;34408;51.426;5.444;2023-05-21T07:51:32;5.18;;;4.07;;
48613;SDS011;34408;51.426;5.444;2023-05-21T07:54:00;6.43;;;4.43;;
48613;SDS011;34408;51.426;5.444;2023-05-21T07:56:28;5.90;;;3.88;;
48613;SDS011;34408;51.426;5.444;2023-05-21T07:58:59;6.20;;;4.47;;
48613;SDS011;34408;51.426;5.444;2023-05-21T08:01:26;11.32;;;4.07;;
48613;SDS011;34408;51.426;5.444;2023-05-21T08:03:55;5.60;;;3.97;;
48613;SDS011;34408;51.426;5.444;2023-05-21T08:06:26;6.13;;;4.05;;
48613;SDS011;34408;51.426;5.444;2023-05-21T08:08:53;8.48;;;3.65;;
48613;SDS011;34408;51.426;5.444;2023-05-21T08:11:22;6.15;;;4.03;;
48613;SDS011;34408;51.426;5.444;2023-05-21T08:13:50;5.70;;;3.83;;
48613;SDS011;34408;51.426;5.444;2023-05-21T08:16:19;8.65;;;3.53;;
48613;SDS011;34408;51.426;5.444;2023-05-21T08:18:48;6.55;;;4.40;;
48613;SDS011;34408;51.426;5.444;2023-05-21T08:21:16;7.10;;;4.45;;
48613;SDS011;34408;51.426;5.444;2023-05-21T08:23:45;6.05;;;3.80;;
48613;SDS011;34408;51.426;5.444;2023-05-21T08:26:12;7.20;;;3.90;;
48613;SDS011;34408;51.426;5.444;2023-05-21T08:28:42;5.25;;;3.53;;
48613;SDS011;34408;51.426;5.444;2023-05-21T08:31:10;6.35;;;4.15;;
48613;SDS011;34408;51.426;5.444;2023-05-21T08:33:39;8.27;;;5.28;;
48613;SDS011;34408;51.426;5.444;2023-05-21T08:36:16;8.43;;;5.07;;
48613;SDS011;34408;51.426;5.444;2023-05-21T08:38:44;6.15;;;4.40;;
48613;SDS011;34408;51.426;5.444;2023-05-21T08:41:12;7.03;;;4.22;;
48613;SDS011;34408;51.426;5.444;2023-05-21T08:43:40;6.75;;;4.60;;
48613;SDS011;34408;51.426;5.444;2023-05-21T08:46:10;8.77;;;4.85;;
48613;SDS011;34408;51.426;5.444;2023-05-21T08:48:39;8.40;;;4.95;;
48613;SDS011;34408;51.426;5.444;2023-05-21T08:51:08;6.82;;;4.93;;
48613;SDS011;34408;51.426;5.444;2023-05-21T08:53:36;11.02;;;5.60;;
48613;SDS011;34408;51.426;5.444;2023-05-21T08:56:04;6.13;;;4.20;;
48613;SDS011;34408;51.426;5.444;2023-05-21T08:58:33;7.50;;;4.63;;
48613;SDS011;34408;51.426;5.444;2023-05-21T09:01:02;8.73;;;4.72;;
48613;SDS011;34408;51.426;5.444;2023-05-21T09:03:31;8.52;;;5.20;;
48613;SDS011;34408;51.426;5.444;2023-05-21T09:06:00;7.32;;;4.53;;
48613;SDS011;34408;51.426;5.444;2023-05-21T09:08:30;8.95;;;5.03;;
48613;SDS011;34408;51.426;5.444;2023-05-21T09:11:01;7.25;;;5.20;;
48613;SDS011;34408;51.426;5.444;2023-05-21T09:13:29;6.88;;;4.78;;
48613;SDS011;34408;51.426;5.444;2023-05-21T09:16:01;6.35;;;4.80;;
48613;SDS011;34408;51.426;5.444;2023-05-21T09:18:29;6.63;;;4.00;;
48613;SDS011;34408;51.426;5.444;2023-05-21T09:20:57;6.65;;;5.18;;
48613;SDS011;34408;51.426;5.444;2023-05-21T09:23:26;9.43;;;4.90;;
48613;SDS011;34408;51.426;5.444;2023-05-21T09:25:55;6.72;;;5.20;;
48613;SDS011;34408;51.426;5.444;2023-05-21T09:28:23;9.38;;;5.18;;
48613;SDS011;34408;51.426;5.444;2023-05-21T09:30:51;10.05;;;5.78;;
48613;SDS011;34408;51.426;5.444;2023-05-21T09:33:23;8.70;;;5.28;;
48613;SDS011;34408;51.426;5.444;2023-05-21T09:35:52;7.60;;;5.13;;
48613;SDS011;34408;51.426;5.444;2023-05-21T09:38:20;7.00;;;5.18;;
48613;SDS011;34408;51.426;5.444;2023-05-21T09:40:50;8.10;;;5.57;;
48613;SDS011;34408;51.426;5.444;2023-05-21T09:43:20;8.10;;;5.53;;
48613;SDS011;34408;51.426;5.444;2023-05-21T09:45:49;7.13;;;4.57;;
48613;SDS011;34408;51.426;5.444;2023-05-21T09:48:31;10.93;;;5.80;;
48613;SDS011;34408;51.426;5.444;2023-05-21T09:51:06;7.65;;;5.55;;
48613;SDS011;34408;51.426;5.444;2023-05-21T09:53:47;7.85;;;5.43;;
48613;SDS011;34408;51.426;5.444;2023-05-21T09:56:21;8.35;;;4.60;;
48613;SDS011;34408;51.426;5.444;2023-05-21T09:58:50;6.20;;;4.80;;
48613;SDS011;34408;51.426;5.444;2023-05-21T10:01:20;9.82;;;4.93;;
48613;SDS011;34408;51.426;5.444;2023-05-21T10:03:49;8.07;;;4.60;;
48613;SDS011;34408;51.426;5.444;2023-05-21T10:06:20;10.05;;;5.13;;
48613;SDS011;34408;51.426;5.444;2023-05-21T10:08:51;8.05;;;5.95;;
48613;SDS011;34408;51.426;5.444;2023-05-21T10:11:24;11.10;;;6.97;;
48613;SDS011;34408;51.426;5.444;2023-05-21T10:13:54;8.38;;;5.28;;
48613;SDS011;34408;51.426;5.444;2023-05-21T10:16:28;8.60;;;6.35;;
48613;SDS011;34408;51.426;5.444;2023-05-21T10:18:59;9.27;;;7.05;;
48613;SDS011;34408;51.426;5.444;2023-05-21T10:21:27;7.53;;;5.82;;
48613;SDS011;34408;51.426;5.444;2023-05-21T10:23:55;9.30;;;5.97;;
48613;SDS011;34408;51.426;5.444;2023-05-21T10:26:25;6.95;;;5.30;;
48613;SDS011;34408;51.426;5.444;2023-05-21T10:28:53;6.43;;;5.07;;
48613;SDS011;34408;51.426;5.444;2023-05-21T10:31:25;8.40;;;6.43;;
48613;SDS011;34408;51.426;5.444;2023-05-21T10:33:54;11.68;;;6.80;;
48613;SDS011;34408;51.426;5.444;2023-05-21T10:36:23;10.38;;;6.32;;
48613;SDS011;34408;51.426;5.444;2023-05-21T10:38:51;11.18;;;7.15;;
48613;SDS011;34408;51.426;5.444;2023-05-21T10:41:20;13.10;;;7.30;;
48613;SDS011;34408;51.426;5.444;2023-05-21T10:43:53;9.38;;;6.95;;
48613;SDS011;34408;51.426;5.444;2023-05-21T10:46:39;7.95;;;5.82;;
48613;SDS011;34408;51.426;5.444;2023-05-21T10:49:26;10.85;;;6.90;;
48613;SDS011;34408;51.426;5.444;2023-05-21T10:52:06;10.00;;;6.45;;
48613;SDS011;34408;51.426;5.444;2023-05-21T10:54:46;11.48;;;5.78;;
48613;SDS011;34408;51.426;5.444;2023-05-21T10:57:29;9.93;;;7.57;;
48613;SDS011;34408;51.426;5.444;2023-05-21T11:00:12;12.63;;;8.43;;
48613;SDS011;34408;51.426;5.444;2023-05-21T11:02:42;9.07;;;6.90;;
48613;SDS011;34408;51.426;5.444;2023-05-21T11:05:11;11.32;;;8.40;;
48613;SDS011;34408;51.426;5.444;2023-05-21T11:07:51;9.70;;;7.72;;
48613;SDS011;34408;51.426;5.444;2023-05-21T11:10:29;14.98;;;7.47;;
48613;SDS011;34408;51.426;5.444;2023-05-21T11:13:04;12.52;;;7.53;;
48613;SDS011;34408;51.426;5.444;2023-05-21T11:21:27;12.43;;;9.38;;
48613;SDS011;34408;51.426;5.444;2023-05-21T11:24:00;15.45;;;8.07;;
48613;SDS011;34408;51.426;5.444;2023-05-21T11:26:58;9.75;;;7.78;;
48613;SDS011;34408;51.426;5.444;2023-05-21T11:32:23;10.88;;;7.93;;
48613;SDS011;34408;51.426;5.444;2023-05-21T11:34:51;11.80;;;7.88;;
48613;SDS011;34408;51.426;5.444;2023-05-21T11:37:22;9.45;;;8.30;;
48613;SDS011;34408;51.426;5.444;2023-05-21T11:39:55;10.98;;;8.05;;
48613;SDS011;34408;51.426;5.444;2023-05-21T11:42:28;11.63;;;8.82;;
48613;SDS011;34408;51.426;5.444;2023-05-21T11:44:58;10.55;;;8.35;;
48613;SDS011;34408;51.426;5.444;2023-05-21T11:47:28;16.48;;;9.23;;
48613;SDS011;34408;51.426;5.444;2023-05-21T11:49:58;11.00;;;7.60;;
48613;SDS011;34408;51.426;5.444;2023-05-21T11:52:27;13.40;;;9.48;;
48613;SDS011;34408;51.426;5.444;2023-05-21T11:54:55;10.40;;;8.38;;
48613;SDS011;34408;51.426;5.444;2023-05-21T11:57:25;16.55;;;8.60;;
48613;SDS011;34408;51.426;5.444;2023-05-21T11:59:56;16.55;;;9.40;;
48613;SDS011;34408;51.426;5.444;2023-05-21T12:02:25;19.42;;;9.85;;
48613;SDS011;34408;51.426;5.444;2023-05-21T12:04:55;12.30;;;8.18;;
48613;SDS011;34408;51.426;5.444;2023-05-21T12:07:26;12.70;;;9.93;;
48613;SDS011;34408;51.426;5.444;2023-05-21T12:09:55;14.40;;;8.23;;
48613;SDS011;34408;51.426;5.444;2023-05-21T12:12:24;11.07;;;8.68;;
48613;SDS011;34408;51.426;5.444;2023-05-21T12:15:07;12.38;;;9.20;;
48613;SDS011;34408;51.426;5.444;2023-05-21T12:17:37;13.63;;;9.73;;
48613;SDS011;34408;51.426;5.444;2023-05-21T12:20:07;13.77;;;9.32;;
48613;SDS011;34408;51.426;5.444;2023-05-21T12:22:39;14.52;;;10.25;;
48613;SDS011;34408;51.426;5.444;2023-05-21T12:25:08;11.00;;;8.88;;
48613;SDS011;34408;51.426;5.444;2023-05-21T12:27:37;14.77;;;10.88;;
48613;SDS011;34408;51.426;5.444;2023-05-21T12:30:07;13.63;;;9.68;;
48613;SDS011;34408;51.426;5.444;2023-05-21T12:32:36;12.32;;;10.32;;
48613;SDS011;34408;51.426;5.444;2023-05-21T12:35:11;15.32;;;11.07;;
48613;SDS011;34408;51.426;5.444;2023-05-21T12:37:48;13.02;;;8.68;;
48613;SDS011;34408;51.426;5.444;2023-05-21T12:40:17;16.10;;;9.60;;
48613;SDS011;34408;51.426;5.444;2023-05-21T12:42:45;13.75;;;9.27;;
48613;SDS011;34408;51.426;5.444;2023-05-21T12:45:13;13.40;;;9.30;;
48613;SDS011;34408;51.426;5.444;2023-05-21T12:47:46;11.07;;;8.43;;
48613;SDS011;34408;51.426;5.444;2023-05-21T12:50:18;12.20;;;8.00;;
48613;SDS011;34408;51.426;5.444;2023-05-21T12:52:47;12.15;;;8.60;;
48613;SDS011;34408;51.426;5.444;2023-05-21T12:55:15;14.45;;;8.32;;
48613;SDS011;34408;51.426;5.444;2023-05-21T12:57:43;10.93;;;7.57;;
48613;SDS011;34408;51.426;5.444;2023-05-21T13:00:11;11.70;;;8.55;;
48613;SDS011;34408;51.426;5.444;2023-05-21T13:02:40;13.82;;;8.63;;
48613;SDS011;34408;51.426;5.444;2023-05-21T13:05:10;16.63;;;10.18;;
48613;SDS011;34408;51.426;5.444;2023-05-21T13:07:44;16.95;;;9.02;;
48613;SDS011;34408;51.426;5.444;2023-05-21T13:10:13;11.85;;;9.07;;
48613;SDS011;34408;51.426;5.444;2023-05-21T13:12:42;10.23;;;8.15;;
48613;SDS011;34408;51.426;5.444;2023-05-21T13:15:11;11.68;;;8.35;;
48613;SDS011;34408;51.426;5.444;2023-05-21T13:17:39;14.50;;;10.25;;
48613;SDS011;34408;51.426;5.444;2023-05-21T13:20:07;16.35;;;10.25;;
48613;SDS011;34408;51.426;5.444;2023-05-21T13:22:38;11.88;;;8.40;;
48613;SDS011;34408;51.426;5.444;2023-05-21T13:25:09;12.95;;;9.13;;
48613;SDS011;34408;51.426;5.444;2023-05-21T13:27:37;13.27;;;9.02;;
48613;SDS011;34408;51.426;5.444;2023-05-21T13:30:06;13.95;;;9.32;;
48613;SDS011;34408;51.426;5.444;2023-05-21T13:32:36;13.57;;;8.05;;
48613;SDS011;34408;51.426;5.444;2023-05-21T13:35:05;11.55;;;9.60;;
48613;SDS011;34408;51.426;5.444;2023-05-21T13:37:34;14.63;;;9.30;;
48613;SDS011;34408;51.426;5.444;2023-05-21T13:40:02;12.15;;;8.65;;
48613;SDS011;34408;51.426;5.444;2023-05-21T13:42:32;13.18;;;8.13;;
48613;SDS011;34408;51.426;5.444;2023-05-21T13:45:03;9.75;;;8.05;;
48613;SDS011;34408;51.426;5.444;2023-05-21T13:47:31;14.18;;;9.07;;
48613;SDS011;34408;51.426;5.444;2023-05-21T13:50:02;14.30;;;7.32;;
48613;SDS011;34408;51.426;5.444;2023-05-21T13:52:30;14.50;;;9.93;;
48613;SDS011;34408;51.426;5.444;2023-05-21T13:54:58;12.77;;;8.90;;
48613;SDS011;34408;51.426;5.444;2023-05-21T13:57:26;14.98;;;8.52;;
48613;SDS011;34408;51.426;5.444;2023-05-21T13:59:57;12.10;;;8.18;;
48613;SDS011;34408;51.426;5.444;2023-05-21T14:02:26;11.85;;;9.30;;
48613;SDS011;34408;51.426;5.444;2023-05-21T14:04:54;11.88;;;8.70;;
48613;SDS011;34408;51.426;5.444;2023-05-21T14:07:21;13.25;;;8.77;;
48613;SDS011;34408;51.426;5.444;2023-05-21T14:09:49;11.40;;;9.02;;
48613;SDS011;34408;51.426;5.444;2023-05-21T14:12:17;12.23;;;8.27;;
48613;SDS011;34408;51.426;5.444;2023-05-21T14:14:45;11.55;;;8.75;;
48613;SDS011;34408;51.426;5.444;2023-05-21T14:17:16;12.40;;;8.82;;
48613;SDS011;34408;51.426;5.444;2023-05-21T14:19:45;11.70;;;9.50;;
48613;SDS011;34408;51.426;5.444;2023-05-21T14:22:13;16.60;;;8.98;;
48613;SDS011;34408;51.426;5.444;2023-05-21T14:24:41;13.40;;;9.50;;
48613;SDS011;34408;51.426;5.444;2023-05-21T14:27:08;12.48;;;8.63;;
48613;SDS011;34408;51.426;5.444;2023-05-21T14:29:39;12.73;;;8.52;;
48613;SDS011;34408;51.426;5.444;2023-05-21T14:32:07;9.80;;;8.55;;
48613;SDS011;34408;51.426;5.444;2023-05-21T14:34:36;11.38;;;8.32;;
48613;SDS011;34408;51.426;5.444;2023-05-21T14:37:05;10.82;;;8.05;;
48613;SDS011;34408;51.426;5.444;2023-05-21T14:39:33;12.32;;;8.52;;
48613;SDS011;34408;51.426;5.444;2023-05-21T14:42:01;12.00;;;9.38;;
48613;SDS011;34408;51.426;5.444;2023-05-21T14:44:30;11.57;;;8.25;;
48613;SDS011;34408;51.426;5.444;2023-05-21T14:46:58;11.60;;;7.85;;
48613;SDS011;34408;51.426;5.444;2023-05-21T14:49:26;9.57;;;7.93;;
48613;SDS011;34408;51.426;5.444;2023-05-21T14:51:55;13.48;;;7.93;;
48613;SDS011;34408;51.426;5.444;2023-05-21T14:54:23;11.05;;;8.75;;
48613;SDS011;34408;51.426;5.444;2023-05-21T14:56:50;12.88;;;8.68;;
48613;SDS011;34408;51.426;5.444;2023-05-21T14:59:19;11.75;;;8.50;;
48613;SDS011;34408;51.426;5.444;2023-05-21T15:01:47;12.40;;;8.73;;
48613;SDS011;34408;51.426;5.444;2023-05-21T15:04:15;11.75;;;8.77;;